sensor_id;sensor_type;location;lat;lon;timestamp;P1;durP1;ratioP1;P2;durP2;ratioP2
32236;SDS011;18726;44.732;10.550;2023-01-10T06:15:47;5.30;;;4.72;;
32236;SDS011;18726;44.732;10.550;2023-01-10T06:18:51;7.25;;;5.32;;
32236;SDS011;18726;44.732;10.550;2023-01-10T06:21:54;5.22;;;4.25;;
32236;SDS011;18726;44.732;10.550;2023-01-10T06:24:59;5.32;;;4.13;;
32236;SDS011;18726;44.732;10.550;2023-01-10T06:28:03;5.45;;;4.00;;
32236;SDS011;18726;44.732;10.550;2023-01-10T06:31:07;4.25;;;3.85;;
32236;SDS011;18726;44.732;10.550;2023-01-10T06:34:10;3.90;;;3.60;;
32236;SDS011;18726;44.732;10.550;2023-01-10T06:37:14;4.40;;;4.00;;
32236;SDS011;18726;44.732;10.550;2023-01-10T06:40:18;3.70;;;3.47;;
32236;SDS011;18726;44.732;10.550;2023-01-10T06:43:22;6.07;;;3.65;;
32236;SDS011;18726;44.732;10.550;2023-01-10T06:46:25;4.40;;;3.47;;
32236;SDS011;18726;44.732;10.550;2023-01-10T06:49:29;3.63;;;3.42;;
32236;SDS011;18726;44.732;10.550;2023-01-10T06:52:33;6.07;;;3.83;;
32236;SDS011;18726;44.732;10.550;2023-01-10T06:55:36;3.85;;;3.58;;
32236;SDS011;18726;44.732;10.550;2023-01-10T06:58:39;4.32;;;3.88;;
32236;SDS011;18726;44.732;10.550;2023-01-10T07:01:43;24.63;;;23.55;;
32236;SDS011;18726;44.732;10.550;2023-01-10T07:04:47;11.32;;;10.73;;
32236;SDS011;18726;44.732;10.550;2023-01-10T07:07:51;24.95;;;23.85;;
32236;SDS011;18726;44.732;10.550;2023-01-10T07:10:56;6.25;;;5.85;;
32236;SDS011;18726;44.732;10.550;2023-01-10T07:14:01;25.08;;;23.67;;
32236;SDS011;18726;44.732;10.550;2023-01-10T07:17:05;111.32;;;106.25;;
32236;SDS011;18726;44.732;10.550;2023-01-10T07:20:10;62.28;;;59.35;;
32236;SDS011;18726;44.732;10.550;2023-01-10T07:23:14;44.28;;;42.17;;
32236;SDS011;18726;44.732;10.550;2023-01-10T07:26:18;46.72;;;44.58;;
32236;SDS011;18726;44.732;10.550;2023-01-10T07:29:22;7.47;;;6.75;;
32236;SDS011;18726;44.732;10.550;2023-01-10T07:32:27;7.70;;;7.20;;
32236;SDS011;18726;44.732;10.550;2023-01-10T07:35:55;6.82;;;6.38;;
32236;SDS011;18726;44.732;10.550;2023-01-10T07:38:59;6.30;;;2.88;;
32236;SDS011;18726;44.732;10.550;2023-01-10T07:42:03;9.00;;;4.82;;
32236;SDS011;18726;44.732;10.550;2023-01-10T07:45:08;4.80;;;4.47;;
32236;SDS011;18726;44.732;10.550;2023-01-10T07:48:13;9.75;;;8.15;;
32236;SDS011;18726;44.732;10.550;2023-01-10T07:51:16;4.10;;;3.55;;
32236;SDS011;18726;44.732;10.550;2023-01-10T07:54:20;3.47;;;3.17;;
32236;SDS011;18726;44.732;10.550;2023-01-10T07:57:24;2.95;;;2.60;;
32236;SDS011;18726;44.732;10.550;2023-01-10T08:00:27;8.68;;;2.85;;
32236;SDS011;18726;44.732;10.550;2023-01-10T08:03:31;4.60;;;3.65;;
32236;SDS011;18726;44.732;10.550;2023-01-10T08:06:35;4.82;;;2.75;;
32236;SDS011;18726;44.732;10.550;2023-01-10T08:09:39;2.95;;;2.60;;
32236;SDS011;18726;44.732;10.550;2023-01-10T08:12:43;2.25;;;2.05;;
32236;SDS011;18726;44.732;10.550;2023-01-10T08:15:48;4.68;;;2.40;;
32236;SDS011;18726;44.732;10.550;2023-01-10T08:18:54;5.18;;;3.38;;
32236;SDS011;18726;44.732;10.550;2023-01-10T08:21:57;2.55;;;2.35;;
32236;SDS011;18726;44.732;10.550;2023-01-10T08:25:03;3.53;;;2.60;;
32236;SDS011;18726;44.732;10.550;2023-01-10T08:28:06;3.25;;;2.95;;
32236;SDS011;18726;44.732;10.550;2023-01-10T08:31:10;2.67;;;2.47;;
32236;SDS011;18726;44.732;10.550;2023-01-10T08:34:13;2.88;;;2.38;;
32236;SDS011;18726;44.732;10.550;2023-01-10T08:37:17;3.20;;;2.92;;
32236;SDS011;18726;44.732;10.550;2023-01-10T08:40:21;5.75;;;3.47;;
32236;SDS011;18726;44.732;10.550;2023-01-10T08:43:24;6.30;;;3.08;;
32236;SDS011;18726;44.732;10.550;2023-01-10T08:46:27;3.40;;;3.10;;
32236;SDS011;18726;44.732;10.550;2023-01-10T08:49:31;3.20;;;2.90;;
32236;SDS011;18726;44.732;10.550;2023-01-10T08:52:35;3.60;;;3.20;;
32236;SDS011;18726;44.732;10.550;2023-01-10T08:55:38;6.07;;;3.90;;
32236;SDS011;18726;44.732;10.550;2023-01-10T08:58:41;4.28;;;3.55;;
32236;SDS011;18726;44.732;10.550;2023-01-10T09:01:45;4.80;;;3.25;;
32236;SDS011;18726;44.732;10.550;2023-01-10T09:04:48;4.28;;;3.42;;
32236;SDS011;18726;44.732;10.550;2023-01-10T09:07:52;6.28;;;3.15;;
32236;SDS011;18726;44.732;10.550;2023-01-10T09:11:01;4.70;;;2.97;;
32236;SDS011;18726;44.732;10.550;2023-01-10T09:14:05;2.70;;;1.95;;
32236;SDS011;18726;44.732;10.550;2023-01-10T09:17:09;5.85;;;2.65;;
32236;SDS011;18726;44.732;10.550;2023-01-10T09:20:13;3.40;;;2.70;;
32236;SDS011;18726;44.732;10.550;2023-01-10T09:23:17;2.92;;;2.30;;
32236;SDS011;18726;44.732;10.550;2023-01-10T09:26:23;2.22;;;1.90;;
32236;SDS011;18726;44.732;10.550;2023-01-10T09:29:27;6.22;;;3.42;;
32236;SDS011;18726;44.732;10.550;2023-01-10T09:32:30;4.40;;;2.65;;
32236;SDS011;18726;44.732;10.550;2023-01-10T09:35:36;3.72;;;3.35;;
32236;SDS011;18726;44.732;10.550;2023-01-10T09:38:42;2.63;;;2.15;;
32236;SDS011;18726;44.732;10.550;2023-01-10T09:42:04;4.88;;;2.38;;
32236;SDS011;18726;44.732;10.550;2023-01-10T09:51:49;8.02;;;3.17;;
32236;SDS011;18726;44.732;10.550;2023-01-10T09:54:54;3.72;;;2.20;;
32236;SDS011;18726;44.732;10.550;2023-01-10T09:58:06;3.58;;;2.58;;
32236;SDS011;18726;44.732;10.550;2023-01-10T10:01:15;4.93;;;2.47;;
32236;SDS011;18726;44.732;10.550;2023-01-10T10:04:33;4.18;;;3.33;;
32236;SDS011;18726;44.732;10.550;2023-01-10T10:07:38;5.13;;;3.47;;
32236;SDS011;18726;44.732;10.550;2023-01-10T10:14:21;2.35;;;2.13;;
32236;SDS011;18726;44.732;10.550;2023-01-10T10:38:00;1.38;;;1.27;;
32236;SDS011;18726;44.732;10.550;2023-01-10T10:41:45;1.65;;;1.50;;
32236;SDS011;18726;44.732;10.550;2023-01-10T10:54:50;1.85;;;1.13;;
32236;SDS011;18726;44.732;10.550;2023-01-10T10:57:54;3.05;;;1.45;;
32236;SDS011;18726;44.732;10.550;2023-01-10T11:00:59;3.72;;;1.55;;
32236;SDS011;18726;44.732;10.550;2023-01-10T11:04:07;1.60;;;1.50;;
32236;SDS011;18726;44.732;10.550;2023-01-10T11:07:15;2.05;;;1.85;;
32236;SDS011;18726;44.732;10.550;2023-01-10T11:10:21;2.85;;;1.88;;
32236;SDS011;18726;44.732;10.550;2023-01-10T11:13:42;2.28;;;1.83;;
32236;SDS011;18726;44.732;10.550;2023-01-10T11:16:49;1.90;;;1.80;;
32236;SDS011;18726;44.732;10.550;2023-01-10T11:23:07;2.80;;;2.60;;
32236;SDS011;18726;44.732;10.550;2023-01-10T11:26:29;2.20;;;2.00;;
32236;SDS011;18726;44.732;10.550;2023-01-10T11:29:41;3.17;;;2.90;;
32236;SDS011;18726;44.732;10.550;2023-01-10T11:32:57;3.50;;;3.30;;
32236;SDS011;18726;44.732;10.550;2023-01-10T11:36:04;3.42;;;3.15;;
32236;SDS011;18726;44.732;10.550;2023-01-10T11:39:12;3.30;;;3.00;;
32236;SDS011;18726;44.732;10.550;2023-01-10T11:42:28;4.07;;;3.40;;
32236;SDS011;18726;44.732;10.550;2023-01-10T11:45:33;3.08;;;2.78;;
32236;SDS011;18726;44.732;10.550;2023-01-10T11:48:40;4.13;;;3.13;;
32236;SDS011;18726;44.732;10.550;2023-01-10T11:51:48;3.28;;;3.00;;
32236;SDS011;18726;44.732;10.550;2023-01-10T11:54:54;4.07;;;3.40;;
32236;SDS011;18726;44.732;10.550;2023-01-10T11:58:12;4.90;;;3.38;;
32236;SDS011;18726;44.732;10.550;2023-01-10T12:01:40;6.85;;;3.50;;
32236;SDS011;18726;44.732;10.550;2023-01-10T12:04:47;2.78;;;2.58;;
32236;SDS011;18726;44.732;10.550;2023-01-10T12:07:53;3.00;;;2.80;;
32236;SDS011;18726;44.732;10.550;2023-01-10T12:11:01;3.40;;;3.10;;
32236;SDS011;18726;44.732;10.550;2023-01-10T12:14:27;3.53;;;3.10;;
32236;SDS011;18726;44.732;10.550;2023-01-10T12:17:33;3.65;;;3.28;;
32236;SDS011;18726;44.732;10.550;2023-01-10T12:23:54;2.70;;;2.50;;
32236;SDS011;18726;44.732;10.550;2023-01-10T12:27:02;3.92;;;2.75;;
32236;SDS011;18726;44.732;10.550;2023-01-10T12:30:12;3.40;;;2.40;;
32236;SDS011;18726;44.732;10.550;2023-01-10T12:33:35;2.63;;;2.53;;
32236;SDS011;18726;44.732;10.550;2023-01-10T12:40:33;3.30;;;2.10;;
32236;SDS011;18726;44.732;10.550;2023-01-10T12:43:45;3.83;;;2.55;;
32236;SDS011;18726;44.732;10.550;2023-01-10T12:53:38;2.38;;;2.28;;
32236;SDS011;18726;44.732;10.550;2023-01-10T12:56:47;3.85;;;2.00;;
32236;SDS011;18726;44.732;10.550;2023-01-10T12:59:51;2.13;;;2.00;;
32236;SDS011;18726;44.732;10.550;2023-01-10T13:02:58;2.30;;;2.20;;
32236;SDS011;18726;44.732;10.550;2023-01-10T13:06:02;2.67;;;2.17;;
32236;SDS011;18726;44.732;10.550;2023-01-10T13:09:07;2.65;;;2.40;;
32236;SDS011;18726;44.732;10.550;2023-01-10T13:12:27;4.20;;;1.85;;
32236;SDS011;18726;44.732;10.550;2023-01-10T13:15:41;2.33;;;2.22;;
32236;SDS011;18726;44.732;10.550;2023-01-10T13:18:57;2.08;;;1.85;;
32236;SDS011;18726;44.732;10.550;2023-01-10T13:22:11;1.80;;;1.67;;
32236;SDS011;18726;44.732;10.550;2023-01-10T13:25:26;2.90;;;2.45;;
32236;SDS011;18726;44.732;10.550;2023-01-10T13:28:32;4.20;;;2.65;;
32236;SDS011;18726;44.732;10.550;2023-01-10T13:31:37;4.68;;;2.17;;
32236;SDS011;18726;44.732;10.550;2023-01-10T13:34:41;4.28;;;2.22;;
32236;SDS011;18726;44.732;10.550;2023-01-10T13:37:49;2.55;;;2.35;;
32236;SDS011;18726;44.732;10.550;2023-01-10T13:40:57;5.90;;;2.22;;
32236;SDS011;18726;44.732;10.550;2023-01-10T13:47:12;3.35;;;2.67;;
32236;SDS011;18726;44.732;10.550;2023-01-10T13:56:38;2.88;;;2.67;;
32236;SDS011;18726;44.732;10.550;2023-01-10T14:00:00;2.58;;;2.38;;
32236;SDS011;18726;44.732;10.550;2023-01-10T14:06:50;2.20;;;2.10;;
32236;SDS011;18726;44.732;10.550;2023-01-10T14:10:07;2.10;;;1.90;;
32236;SDS011;18726;44.732;10.550;2023-01-10T14:13:15;2.30;;;2.20;;
32236;SDS011;18726;44.732;10.550;2023-01-10T14:19:41;5.28;;;2.00;;
32236;SDS011;18726;44.732;10.550;2023-01-10T14:23:01;1.85;;;1.75;;
32236;SDS011;18726;44.732;10.550;2023-01-10T14:26:16;1.90;;;1.80;;
32236;SDS011;18726;44.732;10.550;2023-01-10T14:29:26;2.22;;;2.13;;
32236;SDS011;18726;44.732;10.550;2023-01-10T14:32:35;2.40;;;2.20;;
32236;SDS011;18726;44.732;10.550;2023-01-10T14:35:42;2.42;;;2.22;;
32236;SDS011;18726;44.732;10.550;2023-01-10T14:38:48;2.33;;;2.10;;
32236;SDS011;18726;44.732;10.550;2023-01-10T14:41:59;2.33;;;2.20;;
32236;SDS011;18726;44.732;10.550;2023-01-10T14:45:25;2.05;;;1.85;;
32236;SDS011;18726;44.732;10.550;2023-01-10T14:48:33;2.10;;;2.00;;
32236;SDS011;18726;44.732;10.550;2023-01-10T14:51:41;5.03;;;2.22;;
32236;SDS011;18726;44.732;10.550;2023-01-10T14:55:31;2.30;;;2.10;;
32236;SDS011;18726;44.732;10.550;2023-01-10T14:58:19;2.30;;;2.10;;
32236;SDS011;18726;44.732;10.550;2023-01-10T15:01:26;2.60;;;2.30;;
32236;SDS011;18726;44.732;10.550;2023-01-10T15:04:32;2.28;;;2.13;;
32236;SDS011;18726;44.732;10.550;2023-01-10T15:07:38;3.20;;;2.53;;
32236;SDS011;18726;44.732;10.550;2023-01-10T15:10:42;2.05;;;1.95;;
32236;SDS011;18726;44.732;10.550;2023-01-10T15:13:51;1.92;;;1.83;;
32236;SDS011;18726;44.732;10.550;2023-01-10T15:16:59;2.85;;;2.65;;
32236;SDS011;18726;44.732;10.550;2023-01-10T15:20:05;2.20;;;2.10;;
32236;SDS011;18726;44.732;10.550;2023-01-10T15:23:11;2.22;;;2.03;;
32236;SDS011;18726;44.732;10.550;2023-01-10T15:29:29;2.50;;;2.30;;
32236;SDS011;18726;44.732;10.550;2023-01-10T15:32:35;2.08;;;1.88;;
32236;SDS011;18726;44.732;10.550;2023-01-10T15:35:41;3.50;;;2.30;;
32236;SDS011;18726;44.732;10.550;2023-01-10T15:38:46;17.58;;;11.70;;
32236;SDS011;18726;44.732;10.550;2023-01-10T15:41:54;14.75;;;9.38;;
32236;SDS011;18726;44.732;10.550;2023-01-10T15:48:41;13.32;;;10.55;;
32236;SDS011;18726;44.732;10.550;2023-01-10T15:51:48;27.90;;;16.48;;
32236;SDS011;18726;44.732;10.550;2023-01-10T15:54:51;37.53;;;16.73;;
32236;SDS011;18726;44.732;10.550;2023-01-10T15:57:58;15.25;;;11.20;;
32236;SDS011;18726;44.732;10.550;2023-01-10T16:01:03;35.47;;;22.40;;
32236;SDS011;18726;44.732;10.550;2023-01-10T16:04:09;20.90;;;14.13;;
32236;SDS011;18726;44.732;10.550;2023-01-10T16:07:21;10.60;;;7.75;;
32236;SDS011;18726;44.732;10.550;2023-01-10T16:10:25;19.23;;;9.77;;
32236;SDS011;18726;44.732;10.550;2023-01-10T16:13:30;18.95;;;13.73;;
32236;SDS011;18726;44.732;10.550;2023-01-10T16:16:35;12.52;;;8.40;;
32236;SDS011;18726;44.732;10.550;2023-01-10T16:19:39;7.43;;;5.55;;
32236;SDS011;18726;44.732;10.550;2023-01-10T16:22:43;7.78;;;6.18;;
32236;SDS011;18726;44.732;10.550;2023-01-10T16:25:50;7.07;;;5.90;;
32236;SDS011;18726;44.732;10.550;2023-01-10T16:28:57;5.63;;;5.05;;
32236;SDS011;18726;44.732;10.550;2023-01-10T16:32:01;5.03;;;4.18;;
32236;SDS011;18726;44.732;10.550;2023-01-10T16:35:05;7.82;;;4.75;;
32236;SDS011;18726;44.732;10.550;2023-01-10T16:38:09;8.10;;;6.50;;
32236;SDS011;18726;44.732;10.550;2023-01-10T16:41:14;7.80;;;6.45;;
32236;SDS011;18726;44.732;10.550;2023-01-10T16:44:36;9.43;;;7.47;;
32236;SDS011;18726;44.732;10.550;2023-01-10T16:47:40;7.72;;;6.07;;
32236;SDS011;18726;44.732;10.550;2023-01-10T16:50:44;37.45;;;17.65;;
32236;SDS011;18726;44.732;10.550;2023-01-10T16:53:49;42.63;;;27.85;;
32236;SDS011;18726;44.732;10.550;2023-01-10T16:56:54;35.75;;;25.20;;
32236;SDS011;18726;44.732;10.550;2023-01-10T17:00:01;45.45;;;28.55;;
32236;SDS011;18726;44.732;10.550;2023-01-10T17:03:12;57.65;;;34.92;;
32236;SDS011;18726;44.732;10.550;2023-01-10T17:06:19;25.08;;;19.80;;
32236;SDS011;18726;44.732;10.550;2023-01-10T17:09:24;19.33;;;15.75;;
32236;SDS011;18726;44.732;10.550;2023-01-10T17:12:32;21.02;;;15.45;;
32236;SDS011;18726;44.732;10.550;2023-01-10T17:15:38;16.60;;;11.57;;
32236;SDS011;18726;44.732;10.550;2023-01-10T17:18:42;13.35;;;10.20;;
32236;SDS011;18726;44.732;10.550;2023-01-10T17:21:45;17.20;;;11.07;;
32236;SDS011;18726;44.732;10.550;2023-01-10T17:24:48;24.15;;;15.18;;
32236;SDS011;18726;44.732;10.550;2023-01-10T17:27:52;25.00;;;15.85;;
32236;SDS011;18726;44.732;10.550;2023-01-10T17:30:56;21.90;;;14.80;;
32236;SDS011;18726;44.732;10.550;2023-01-10T17:34:00;19.02;;;14.38;;
32236;SDS011;18726;44.732;10.550;2023-01-10T17:37:03;20.10;;;11.70;;
32236;SDS011;18726;44.732;10.550;2023-01-10T17:40:08;7.13;;;6.38;;
32236;SDS011;18726;44.732;10.550;2023-01-10T17:43:12;17.33;;;11.88;;
32236;SDS011;18726;44.732;10.550;2023-01-10T17:46:17;15.77;;;13.10;;
32236;SDS011;18726;44.732;10.550;2023-01-10T17:49:21;17.00;;;15.18;;
32236;SDS011;18726;44.732;10.550;2023-01-10T17:52:26;12.25;;;11.15;;
32236;SDS011;18726;44.732;10.550;2023-01-10T17:55:30;10.48;;;7.75;;
32236;SDS011;18726;44.732;10.550;2023-01-10T17:58:33;12.02;;;8.65;;
32236;SDS011;18726;44.732;10.550;2023-01-10T18:01:38;16.05;;;12.15;;
32236;SDS011;18726;44.732;10.550;2023-01-10T18:04:41;13.30;;;10.25;;
32236;SDS011;18726;44.732;10.550;2023-01-10T18:07:45;8.75;;;7.45;;
32236;SDS011;18726;44.732;10.550;2023-01-10T18:10:49;7.88;;;7.03;;
32236;SDS011;18726;44.732;10.550;2023-01-10T18:13:54;9.50;;;7.88;;
32236;SDS011;18726;44.732;10.550;2023-01-10T18:16:57;8.75;;;6.38;;
32236;SDS011;18726;44.732;10.550;2023-01-10T18:20:01;11.57;;;7.28;;
32236;SDS011;18726;44.732;10.550;2023-01-10T18:23:05;6.72;;;6.13;;
32236;SDS011;18726;44.732;10.550;2023-01-10T18:26:24;7.00;;;6.30;;
32236;SDS011;18726;44.732;10.550;2023-01-10T18:29:27;8.32;;;6.57;;
32236;SDS011;18726;44.732;10.550;2023-01-10T18:32:31;10.40;;;8.15;;
32236;SDS011;18726;44.732;10.550;2023-01-10T18:35:36;12.43;;;8.23;;
32236;SDS011;18726;44.732;10.550;2023-01-10T18:38:41;9.55;;;8.52;;
32236;SDS011;18726;44.732;10.550;2023-01-10T18:41:45;9.68;;;7.13;;
32236;SDS011;18726;44.732;10.550;2023-01-10T18:44:49;7.65;;;6.28;;
32236;SDS011;18726;44.732;10.550;2023-01-10T18:47:53;8.27;;;5.85;;
32236;SDS011;18726;44.732;10.550;2023-01-10T18:51:00;5.15;;;4.65;;
32236;SDS011;18726;44.732;10.550;2023-01-10T18:54:05;7.50;;;6.70;;
32236;SDS011;18726;44.732;10.550;2023-01-10T18:57:08;14.07;;;8.88;;
32236;SDS011;18726;44.732;10.550;2023-01-10T19:00:12;15.52;;;9.85;;
32236;SDS011;18726;44.732;10.550;2023-01-10T19:03:16;10.07;;;7.75;;
32236;SDS011;18726;44.732;10.550;2023-01-10T19:06:20;21.65;;;11.85;;
32236;SDS011;18726;44.732;10.550;2023-01-10T19:09:25;18.92;;;10.80;;
32236;SDS011;18726;44.732;10.550;2023-01-10T19:12:29;13.60;;;7.63;;
32236;SDS011;18726;44.732;10.550;2023-01-10T19:15:33;8.02;;;5.97;;
32236;SDS011;18726;44.732;10.550;2023-01-10T19:18:36;8.38;;;6.07;;
32236;SDS011;18726;44.732;10.550;2023-01-10T19:21:41;9.57;;;6.13;;
32236;SDS011;18726;44.732;10.550;2023-01-10T19:24:44;5.53;;;4.45;;
32236;SDS011;18726;44.732;10.550;2023-01-10T19:27:47;7.60;;;5.97;;
32236;SDS011;18726;44.732;10.550;2023-01-10T19:30:51;9.52;;;6.47;;
32236;SDS011;18726;44.732;10.550;2023-01-10T19:33:59;10.90;;;7.18;;
32236;SDS011;18726;44.732;10.550;2023-01-10T19:37:03;8.30;;;6.60;;
32236;SDS011;18726;44.732;10.550;2023-01-10T19:40:07;32.45;;;16.20;;
32236;SDS011;18726;44.732;10.550;2023-01-10T19:43:12;28.15;;;18.60;;
32236;SDS011;18726;44.732;10.550;2023-01-10T19:46:15;29.38;;;16.75;;
32236;SDS011;18726;44.732;10.550;2023-01-10T19:49:19;53.00;;;27.38;;
32236;SDS011;18726;44.732;10.550;2023-01-10T19:52:23;40.30;;;20.42;;
32236;SDS011;18726;44.732;10.550;2023-01-10T19:55:26;44.63;;;20.05;;
32236;SDS011;18726;44.732;10.550;2023-01-10T19:58:31;19.40;;;13.73;;
32236;SDS011;18726;44.732;10.550;2023-01-10T20:01:35;12.50;;;9.82;;
32236;SDS011;18726;44.732;10.550;2023-01-10T20:04:39;8.18;;;6.60;;
32236;SDS011;18726;44.732;10.550;2023-01-10T20:07:42;12.70;;;10.50;;
32236;SDS011;18726;44.732;10.550;2023-01-10T20:10:51;20.00;;;15.50;;
32236;SDS011;18726;44.732;10.550;2023-01-10T20:13:54;12.48;;;9.80;;
32236;SDS011;18726;44.732;10.550;2023-01-10T20:16:58;9.60;;;8.70;;
32236;SDS011;18726;44.732;10.550;2023-01-10T20:20:03;7.97;;;7.18;;
32236;SDS011;18726;44.732;10.550;2023-01-10T20:23:07;7.15;;;6.45;;
32236;SDS011;18726;44.732;10.550;2023-01-10T20:26:19;22.30;;;12.98;;
32236;SDS011;18726;44.732;10.550;2023-01-10T20:29:29;11.55;;;9.00;;
32236;SDS011;18726;44.732;10.550;2023-01-10T20:32:32;30.38;;;18.35;;
32236;SDS011;18726;44.732;10.550;2023-01-10T20:35:36;77.13;;;41.42;;
32236;SDS011;18726;44.732;10.550;2023-01-10T20:38:42;57.88;;;35.85;;
32236;SDS011;18726;44.732;10.550;2023-01-10T20:41:46;71.00;;;37.80;;
32236;SDS011;18726;44.732;10.550;2023-01-10T20:44:50;56.60;;;28.02;;
32236;SDS011;18726;44.732;10.550;2023-01-10T20:47:54;29.67;;;18.90;;
32236;SDS011;18726;44.732;10.550;2023-01-10T20:50:58;55.10;;;32.38;;
32236;SDS011;18726;44.732;10.550;2023-01-10T20:54:03;71.70;;;33.65;;
32236;SDS011;18726;44.732;10.550;2023-01-10T20:57:08;12.43;;;8.90;;
32236;SDS011;18726;44.732;10.550;2023-01-10T21:00:11;7.85;;;6.40;;
32236;SDS011;18726;44.732;10.550;2023-01-10T21:03:15;7.13;;;5.60;;
32236;SDS011;18726;44.732;10.550;2023-01-10T21:06:19;7.05;;;5.88;;
32236;SDS011;18726;44.732;10.550;2023-01-10T21:09:23;6.97;;;5.97;;
32236;SDS011;18726;44.732;10.550;2023-01-10T21:12:27;8.52;;;6.05;;
32236;SDS011;18726;44.732;10.550;2023-01-10T21:15:31;10.98;;;7.32;;
32236;SDS011;18726;44.732;10.550;2023-01-10T21:18:36;7.75;;;6.70;;
32236;SDS011;18726;44.732;10.550;2023-01-10T21:21:43;6.57;;;5.90;;
32236;SDS011;18726;44.732;10.550;2023-01-10T21:24:46;5.30;;;4.80;;
32236;SDS011;18726;44.732;10.550;2023-01-10T21:27:50;5.03;;;4.53;;
32236;SDS011;18726;44.732;10.550;2023-01-10T21:30:54;4.68;;;4.28;;
32236;SDS011;18726;44.732;10.550;2023-01-10T21:33:57;6.00;;;5.07;;
32236;SDS011;18726;44.732;10.550;2023-01-10T21:37:01;6.28;;;5.50;;
32236;SDS011;18726;44.732;10.550;2023-01-10T21:40:04;5.15;;;4.43;;
32236;SDS011;18726;44.732;10.550;2023-01-10T21:43:08;4.55;;;4.13;;
32236;SDS011;18726;44.732;10.550;2023-01-10T21:46:12;4.57;;;4.18;;
32236;SDS011;18726;44.732;10.550;2023-01-10T21:49:15;8.35;;;4.93;;
32236;SDS011;18726;44.732;10.550;2023-01-10T21:52:18;6.03;;;5.53;;
32236;SDS011;18726;44.732;10.550;2023-01-10T21:55:22;7.80;;;7.03;;
32236;SDS011;18726;44.732;10.550;2023-01-10T21:58:26;8.82;;;8.02;;
32236;SDS011;18726;44.732;10.550;2023-01-10T22:01:30;5.43;;;4.93;;
32236;SDS011;18726;44.732;10.550;2023-01-10T22:04:34;6.13;;;5.53;;
32236;SDS011;18726;44.732;10.550;2023-01-10T22:07:37;7.22;;;6.63;;
32236;SDS011;18726;44.732;10.550;2023-01-10T22:10:41;9.07;;;5.90;;
32236;SDS011;18726;44.732;10.550;2023-01-10T22:13:44;5.82;;;5.15;;
32236;SDS011;18726;44.732;10.550;2023-01-10T22:16:48;8.77;;;6.15;;
32236;SDS011;18726;44.732;10.550;2023-01-10T22:19:51;6.00;;;5.50;;
32236;SDS011;18726;44.732;10.550;2023-01-10T22:22:54;7.20;;;6.50;;
32236;SDS011;18726;44.732;10.550;2023-01-10T22:25:59;10.00;;;8.57;;
32236;SDS011;18726;44.732;10.550;2023-01-10T22:29:09;6.38;;;5.78;;
32236;SDS011;18726;44.732;10.550;2023-01-10T22:32:13;6.47;;;5.88;;
32236;SDS011;18726;44.732;10.550;2023-01-10T22:35:17;7.38;;;5.95;;
32236;SDS011;18726;44.732;10.550;2023-01-10T22:38:20;8.82;;;5.75;;
32236;SDS011;18726;44.732;10.550;2023-01-10T22:41:24;7.50;;;6.70;;
32236;SDS011;18726;44.732;10.550;2023-01-10T22:44:31;9.70;;;6.40;;
32236;SDS011;18726;44.732;10.550;2023-01-10T22:47:34;7.05;;;6.07;;
32236;SDS011;18726;44.732;10.550;2023-01-10T22:50:38;8.27;;;6.50;;
32236;SDS011;18726;44.732;10.550;2023-01-10T22:53:41;6.05;;;5.45;;
32236;SDS011;18726;44.732;10.550;2023-01-10T22:56:46;13.48;;;6.60;;
32236;SDS011;18726;44.732;10.550;2023-01-10T22:59:50;6.47;;;5.03;;
32236;SDS011;18726;44.732;10.550;2023-01-10T23:02:53;6.03;;;4.47;;
32236;SDS011;18726;44.732;10.550;2023-01-10T23:05:57;5.53;;;4.85;;
32236;SDS011;18726;44.732;10.550;2023-01-10T23:09:01;6.57;;;4.85;;
32236;SDS011;18726;44.732;10.550;2023-01-10T23:12:04;4.82;;;4.32;;
32236;SDS011;18726;44.732;10.550;2023-01-10T23:15:08;6.90;;;4.88;;
32236;SDS011;18726;44.732;10.550;2023-01-10T23:18:12;9.88;;;5.15;;
32236;SDS011;18726;44.732;10.550;2023-01-10T23:21:18;7.75;;;5.90;;
32236;SDS011;18726;44.732;10.550;2023-01-10T23:24:22;8.93;;;6.38;;
32236;SDS011;18726;44.732;10.550;2023-01-10T23:27:25;12.95;;;6.13;;
32236;SDS011;18726;44.732;10.550;2023-01-10T23:30:29;7.03;;;5.30;;
32236;SDS011;18726;44.732;10.550;2023-01-10T23:33:32;7.40;;;4.78;;
32236;SDS011;18726;44.732;10.550;2023-01-10T23:36:37;9.85;;;5.90;;
32236;SDS011;18726;44.732;10.550;2023-01-10T23:39:40;16.33;;;11.02;;
32236;SDS011;18726;44.732;10.550;2023-01-10T23:42:43;8.85;;;7.47;;
32236;SDS011;18726;44.732;10.550;2023-01-10T23:45:47;6.88;;;6.28;;
32236;SDS011;18726;44.732;10.550;2023-01-10T23:48:51;5.88;;;5.03;;
32236;SDS011;18726;44.732;10.550;2023-01-10T23:51:54;5.82;;;4.80;;
32236;SDS011;18726;44.732;10.550;2023-01-10T23:54:58;5.70;;;3.95;;
32236;SDS011;18726;44.732;10.550;2023-01-10T23:58:01;6.50;;;5.90;;
